Terminal Aerodrome Forecast
Issued by NWS

Home | Current Version | Previous Version | Text Only | Print | Product List | Glossary On
Versions: 1 2 3 4 5 6 7 8 9 10 11 12 13 14 15
979
FTUS42 KTAE 030525 CCA
TAFDHN
TAF COR
KDHN 030525Z 0306/0406 21005KT P6SM SCT009 BKN015 BKN250
     FM030900 00000KT 4SM BR BKN015
      TEMPO 0309/0313 2SM BR SCT004 BKN007
     FM031500 24007KT P6SM BKN030
     FM031800 26010KT 5SM TSRA BKN035CB
     FM040000 28006KT P6SM BKN250=

USA.gov is the U.S. government's official web portal to all federal, state and local government web resources and services.